Time;durP1;ratioP1;P1;durP2;ratioP2;P2;SDS_P1;SDS_P2;PMS_P1;PMS_P2;Temp;Humidity;BMP_temperature;BMP_pressure;BME280_temperature;BME280_humidity;BME280_pressure;Samples;Min_cycle;Max_cycle;Signal;HPM_P1;HPM_P2
2022/09/10 00:01:34;;;;;;;;;;;17.40;99.90;;;;;;5095037;28;19915;-80
2022/09/10 00:04:00;;;;;;;;;;;17.40;99.90;;;;;;5093825;28;19962;-80
2022/09/10 00:06:29;;;;;;;;;;;17.40;99.90;;;;;;5093207;28;19908;-80
2022/09/10 00:08:56;;;;;;;;;;;17.40;99.90;;;;;;5094977;28;19915;-80
2022/09/10 00:11:22;;;;;;;;;;;17.40;99.90;;;;;;5095112;28;19912;-80
2022/09/10 00:13:48;;;;;;;;;;;17.50;99.90;;;;;;5095085;28;19999;-80
2022/09/10 00:16:14;;;;;;;;;;;17.50;99.90;;;;;;5094263;28;20378;-80
2022/09/10 00:18:40;;;;;;;;;;;17.50;99.90;;;;;;5094919;28;19918;-79
2022/09/10 00:21:07;;;;;;;;;;;17.60;99.90;;;;;;5094864;28;19991;-80
2022/09/10 00:23:33;;;;;;;;;;;17.70;99.90;;;;;;5093691;28;19908;-80
2022/09/10 00:25:59;;;;;;;;;;;17.70;99.90;;;;;;5094092;28;19909;-79
2022/09/10 00:28:25;;;;;;;;;;;17.70;99.90;;;;;;5094897;28;19946;-80
2022/09/10 00:30:53;;;;;;;;;;;17.80;99.90;;;;;;5093384;28;20015;-80
2022/09/10 00:33:19;;;;;;;;;;;17.70;99.90;;;;;;5094570;28;20013;-80
2022/09/10 00:35:45;;;;;;;;;;;17.80;99.90;;;;;;5092780;28;19916;-80
2022/09/10 00:38:11;;;;;;;;;;;17.80;99.90;;;;;;5094445;28;19947;-80
2022/09/10 00:40:37;;;;;;;;;;;17.80;99.90;;;;;;5093135;28;19957;-80
2022/09/10 00:43:02;;;;;;;;;;;17.80;99.90;;;;;;5092979;28;19999;-80
2022/09/10 00:45:30;;;;;;;;;;;17.90;99.90;;;;;;5092780;28;19908;-80
2022/09/10 00:47:58;;;;;;;;;;;17.90;99.90;;;;;;5092420;28;19908;-79
2022/09/10 00:50:43;;;;;;;;;;;17.90;99.90;;;;;;5092686;28;19912;-80
2022/09/10 00:53:11;;;;;;;;;;;17.90;99.90;;;;;;5092839;28;19908;-80
2022/09/10 00:55:38;;;;;;;;;;;17.90;99.90;;;;;;5093749;28;19944;-80
2022/09/10 00:58:05;;;;;;;;;;;17.90;99.90;;;;;;5092543;28;19951;-80
2022/09/10 01:00:31;;;;;;;;;;;18.00;99.90;;;;;;5092745;28;19948;-80
2022/09/10 01:02:58;;;;;;;;;;;18.00;99.90;;;;;;5093895;28;20417;-80
2022/09/10 01:05:24;;;;;;;;;;;17.90;99.90;;;;;;5093637;28;19908;-80
2022/09/10 01:07:51;;;;;;;;;;;17.80;99.90;;;;;;5093274;28;20351;-80
2022/09/10 01:10:20;;;;;;;;;;;17.80;99.90;;;;;;5093664;28;19963;-80
2022/09/10 01:13:05;;;;;;;;;;;17.80;99.90;;;;;;5092305;28;19915;-80
2022/09/10 01:15:30;;;;;;;;;;;17.70;99.90;;;;;;5093221;28;19916;-80
2022/09/10 01:18:07;;;;;;;;;;;17.60;99.90;;;;;;5091502;28;19934;-80
2022/09/10 01:20:39;;;;;;;;;;;17.50;99.90;;;;;;5093422;28;20318;-79
2022/09/10 01:23:27;;;;;;;;;;;17.50;99.90;;;;;;5092360;28;19999;-80
2022/09/10 01:25:55;;;;;;;;;;;17.40;99.90;;;;;;5092952;28;19931;-80
2022/09/10 01:28:26;;;;;;;;;;;17.20;99.90;;;;;;5093471;28;20333;-80
2022/09/10 01:30:54;;;;;;;;;;;17.20;99.90;;;;;;5093248;28;19912;-80
2022/09/10 01:33:31;;;;;;;;;;;17.20;99.90;;;;;;5093305;28;19916;-80
2022/09/10 01:36:02;;;;;;;;;;;17.20;99.90;;;;;;5092768;28;19915;-80
2022/09/10 01:38:31;;;;;;;;;;;17.20;99.90;;;;;;5092017;28;19934;-80
2022/09/10 01:40:57;;;;;;;;;;;17.20;99.90;;;;;;5093050;28;19915;-80
2022/09/10 01:43:22;;;;;;;;;;;17.30;99.90;;;;;;5093216;28;19943;-80
2022/09/10 01:45:51;;;;;;;;;;;17.30;99.90;;;;;;5092558;28;19995;-80
2022/09/10 01:48:35;;;;;;;;;;;17.30;99.90;;;;;;5091735;28;19912;-80
2022/09/10 01:51:03;;;;;;;;;;;17.30;99.90;;;;;;5092810;28;19912;-80
2022/09/10 01:53:54;;;;;;;;;;;17.30;99.90;;;;;;5093031;28;19908;-80
2022/09/10 01:56:34;;;;;;;;;;;17.30;99.90;;;;;;5092494;28;19908;-80
2022/09/10 01:59:22;;;;;;;;;;;17.30;99.90;;;;;;5093097;28;19916;-80
2022/09/10 02:01:51;;;;;;;;;;;17.30;99.90;;;;;;5089628;28;19908;-80
2022/09/10 02:04:18;;;;;;;;;;;17.30;99.90;;;;;;5092741;28;19937;-80
2022/09/10 02:06:46;;;;;;;;;;;17.30;99.90;;;;;;5091384;28;19978;-80
2022/09/10 02:09:12;;;;;;;;;;;17.30;99.90;;;;;;5093035;28;20371;-80
2022/09/10 02:11:43;;;;;;;;;;;17.30;99.90;;;;;;5092803;28;19912;-80
2022/09/10 02:14:12;;;;;;;;;;;17.30;99.90;;;;;;5092731;28;19912;-79
2022/09/10 02:16:39;;;;;;;;;;;17.30;99.90;;;;;;5108486;22;19929;-80
2022/09/10 02:19:05;;;;;;;;;;;17.30;99.90;;;;;;5052106;28;19915;-81
2022/09/10 02:21:31;;;;;;;;;;;17.30;99.90;;;;;;5052533;28;20358;-80
2022/09/10 02:23:57;;;;;;;;;;;17.40;99.90;;;;;;5067756;28;19913;-79
2022/09/10 02:26:24;;;;;;;;;;;17.40;99.90;;;;;;5051779;28;19935;-80
2022/09/10 02:28:50;;;;;;;;;;;17.40;99.90;;;;;;5052573;28;19909;-80
2022/09/10 02:31:17;;;;;;;;;;;17.40;99.90;;;;;;5055045;28;19916;-80
2022/09/10 02:33:43;;;;;;;;;;;17.50;99.90;;;;;;5056442;28;20287;-80
2022/09/10 02:36:08;;;;;;;;;;;17.50;99.90;;;;;;5054479;28;19908;-79
2022/09/10 02:38:34;;;;;;;;;;;17.50;99.90;;;;;;5055271;28;19908;-80
2022/09/10 02:40:59;;;;;;;;;;;17.50;99.90;;;;;;5054976;28;20375;-80
2022/09/10 02:43:25;;;;;;;;;;;17.50;99.90;;;;;;5056200;28;19930;-80
2022/09/10 02:45:55;;;;;;;;;;;17.50;99.90;;;;;;5055471;28;20372;-80
2022/09/10 02:48:21;;;;;;;;;;;17.50;99.90;;;;;;5055965;28;19916;-80
2022/09/10 02:50:47;;;;;;;;;;;17.60;99.90;;;;;;5056184;28;20291;-80
2022/09/10 02:53:12;;;;;;;;;;;17.70;99.90;;;;;;5054651;28;19909;-80
2022/09/10 02:55:38;;;;;;;;;;;17.80;99.90;;;;;;5055592;28;20294;-79
2022/09/10 02:58:03;;;;;;;;;;;17.80;99.90;;;;;;5054525;28;20399;-80
2022/09/10 03:00:30;;;;;;;;;;;17.90;99.90;;;;;;5055804;28;19940;-80
2022/09/10 03:02:56;;;;;;;;;;;17.90;99.90;;;;;;5055690;28;19955;-80
2022/09/10 03:05:21;;;;;;;;;;;18.00;99.90;;;;;;5055480;28;19913;-80
2022/09/10 03:07:47;;;;;;;;;;;18.00;99.90;;;;;;5054037;28;20012;-80
2022/09/10 03:10:12;;;;;;;;;;;18.00;99.90;;;;;;5055455;28;19919;-80
2022/09/10 03:12:38;;;;;;;;;;;18.00;99.90;;;;;;5054645;28;19908;-80
2022/09/10 03:15:03;;;;;;;;;;;18.10;99.90;;;;;;5055494;28;19909;-80
2022/09/10 03:17:29;;;;;;;;;;;18.10;99.90;;;;;;5054922;28;19942;-79
2022/09/10 03:19:54;;;;;;;;;;;18.10;99.90;;;;;;5055383;28;19916;-79
2022/09/10 03:22:20;;;;;;;;;;;18.10;99.90;;;;;;5055275;28;20453;-80
2022/09/10 03:24:46;;;;;;;;;;;18.10;99.90;;;;;;5053946;28;19916;-80
2022/09/10 03:27:12;;;;;;;;;;;18.10;99.90;;;;;;5054974;28;19909;-80
2022/09/10 03:29:38;;;;;;;;;;;18.10;99.90;;;;;;5055213;28;19913;-80
2022/09/10 03:32:04;;;;;;;;;;;18.10;99.90;;;;;;5053956;28;19916;-80
2022/09/10 03:34:29;;;;;;;;;;;18.10;99.90;;;;;;5055053;28;19967;-80
2022/09/10 03:36:54;;;;;;;;;;;18.10;99.90;;;;;;5053474;28;19909;-80
2022/09/10 03:39:20;;;;;;;;;;;18.10;99.90;;;;;;5053756;28;19962;-80
2022/09/10 03:41:45;;;;;;;;;;;18.10;99.90;;;;;;5054035;28;19962;-80
2022/09/10 03:44:11;;;;;;;;;;;18.10;99.90;;;;;;5054952;28;19908;-80
2022/09/10 03:46:37;;;;;;;;;;;18.10;99.90;;;;;;5054484;28;19963;-80
2022/09/10 03:49:03;;;;;;;;;;;18.10;99.90;;;;;;5054542;28;20007;-80
2022/09/10 03:51:30;;;;;;;;;;;18.10;99.90;;;;;;5054634;28;19924;-80
2022/09/10 03:53:55;;;;;;;;;;;18.10;99.90;;;;;;5053458;28;19916;-80
2022/09/10 03:56:21;;;;;;;;;;;18.10;99.90;;;;;;5054345;28;19913;-79
2022/09/10 03:58:48;;;;;;;;;;;18.20;99.90;;;;;;5054628;28;19909;-80
2022/09/10 04:01:13;;;;;;;;;;;18.20;99.90;;;;;;5054552;28;20303;-79
2022/09/10 04:03:40;;;;;;;;;;;18.10;99.90;;;;;;5053274;28;19916;-80
2022/09/10 04:06:09;;;;;;;;;;;18.10;99.90;;;;;;5052846;28;19999;-80
2022/09/10 04:08:35;;;;;;;;;;;18.10;99.90;;;;;;5054491;28;19908;-80
2022/09/10 04:11:01;;;;;;;;;;;18.10;99.90;;;;;;5053170;28;20294;-80
2022/09/10 04:13:26;;;;;;;;;;;18.10;99.90;;;;;;5054379;28;20350;-80
2022/09/10 04:15:52;;;;;;;;;;;18.00;99.90;;;;;;5053802;28;19948;-80
2022/09/10 04:18:19;;;;;;;;;;;17.80;99.90;;;;;;5054498;28;20107;-80
2022/09/10 04:20:45;;;;;;;;;;;17.60;99.90;;;;;;5054192;28;20359;-80
2022/09/10 04:23:11;;;;;;;;;;;17.60;99.90;;;;;;5052997;28;20019;-80
2022/09/10 04:25:36;;;;;;;;;;;17.50;99.90;;;;;;5053909;28;19947;-80
2022/09/10 04:28:02;;;;;;;;;;;17.40;99.90;;;;;;5054010;28;19955;-80
2022/09/10 04:30:27;;;;;;;;;;;17.40;99.90;;;;;;5053926;28;20283;-80
2022/09/10 04:32:53;;;;;;;;;;;17.30;99.90;;;;;;5052873;28;19948;-80
2022/09/10 04:35:19;;;;;;;;;;;17.30;99.90;;;;;;5052889;28;19915;-80
2022/09/10 04:37:44;;;;;;;;;;;17.30;99.90;;;;;;5053594;28;19947;-80
2022/09/10 04:40:10;;;;;;;;;;;17.30;99.90;;;;;;5055260;28;20364;-81
2022/09/10 04:42:36;;;;;;;;;;;17.20;99.90;;;;;;5055552;28;19909;-80
2022/09/10 04:45:01;;;;;;;;;;;17.20;99.90;;;;;;5054463;28;19909;-80
2022/09/10 04:47:26;;;;;;;;;;;17.10;99.90;;;;;;5053216;28;19919;-80
2022/09/10 04:49:52;;;;;;;;;;;17.10;99.90;;;;;;5053392;28;20360;-80
2022/09/10 04:52:19;;;;;;;;;;;17.10;99.90;;;;;;5053084;28;19951;-80
2022/09/10 04:54:44;;;;;;;;;;;17.10;99.90;;;;;;5055759;28;19909;-80
2022/09/10 04:57:09;;;;;;;;;;;17.10;99.90;;;;;;5054348;28;19916;-80
2022/09/10 04:59:35;;;;;;;;;;;17.20;99.90;;;;;;5054623;28;19917;-80
2022/09/10 05:02:01;;;;;;;;;;;17.20;99.90;;;;;;5052916;28;19909;-80
2022/09/10 05:04:27;;;;;;;;;;;17.30;99.90;;;;;;5054076;28;19916;-82
2022/09/10 05:06:52;;;;;;;;;;;17.30;99.90;;;;;;5054685;28;19961;-80
2022/09/10 05:09:19;;;;;;;;;;;17.40;99.90;;;;;;5055374;28;19916;-80
2022/09/10 05:11:45;;;;;;;;;;;17.40;99.90;;;;;;5055506;28;19952;-81
2022/09/10 05:14:11;;;;;;;;;;;17.50;99.90;;;;;;5054700;28;19909;-80
2022/09/10 05:16:37;;;;;;;;;;;17.40;99.90;;;;;;5054226;28;20416;-80
2022/09/10 05:19:02;;;;;;;;;;;17.40;99.90;;;;;;5054794;28;19919;-81
2022/09/10 05:21:30;;;;;;;;;;;17.40;99.90;;;;;;5054580;28;19908;-81
2022/09/10 05:23:55;;;;;;;;;;;17.50;99.90;;;;;;5053460;28;19915;-79
2022/09/10 05:26:21;;;;;;;;;;;17.50;99.90;;;;;;5052911;28;20004;-81
2022/09/10 05:28:46;;;;;;;;;;;17.60;99.90;;;;;;5053658;28;19909;-80
2022/09/10 05:31:12;;;;;;;;;;;17.70;99.90;;;;;;5054254;28;19913;-80
2022/09/10 05:33:39;;;;;;;;;;;17.70;99.90;;;;;;5054547;28;19966;-81
2022/09/10 05:36:07;;;;;;;;;;;17.70;99.90;;;;;;5053896;28;19909;-81
2022/09/10 05:38:33;;;;;;;;;;;17.80;99.90;;;;;;5052577;28;19944;-81
2022/09/10 05:40:59;;;;;;;;;;;17.80;99.90;;;;;;5053190;28;19909;-81
2022/09/10 05:43:26;;;;;;;;;;;17.90;99.90;;;;;;5053913;28;20292;-81
2022/09/10 05:45:51;;;;;;;;;;;17.90;99.90;;;;;;5054237;28;19909;-80
2022/09/10 05:48:17;;;;;;;;;;;17.90;99.90;;;;;;5052496;28;19920;-81
2022/09/10 05:50:44;;;;;;;;;;;17.90;99.90;;;;;;5053118;28;20011;-81
2022/09/10 05:53:10;;;;;;;;;;;17.90;99.90;;;;;;5053988;28;19909;-81
2022/09/10 05:55:35;;;;;;;;;;;17.90;99.90;;;;;;5053721;28;19915;-81
2022/09/10 05:58:01;;;;;;;;;;;17.90;99.90;;;;;;5053775;28;19909;-80
2022/09/10 06:00:27;;;;;;;;;;;17.90;99.90;;;;;;5052775;28;20105;-80
2022/09/10 06:02:52;;;;;;;;;;;17.90;99.90;;;;;;5054248;28;19966;-81
2022/09/10 06:05:21;;;;;;;;;;;17.90;99.90;;;;;;5054129;28;19916;-81
2022/09/10 06:07:47;;;;;;;;;;;17.90;99.90;;;;;;5052295;28;19971;-81
2022/09/10 06:10:13;;;;;;;;;;;17.90;99.90;;;;;;5054233;28;19913;-81
2022/09/10 06:12:39;;;;;;;;;;;18.00;99.90;;;;;;5052282;28;19916;-80
2022/09/10 06:15:06;;;;;;;;;;;18.00;99.90;;;;;;5052545;28;19908;-81
2022/09/10 06:17:31;;;;;;;;;;;17.90;99.90;;;;;;5052979;28;19923;-81
2022/09/10 06:19:57;;;;;;;;;;;17.90;99.90;;;;;;5052639;28;20003;-81
2022/09/10 06:22:22;;;;;;;;;;;17.80;99.90;;;;;;5053006;28;19955;-80
2022/09/10 06:24:49;;;;;;;;;;;17.70;99.90;;;;;;5051991;28;20031;-80
2022/09/10 06:27:15;;;;;;;;;;;17.70;99.90;;;;;;5053332;28;19909;-80
2022/09/10 06:29:41;;;;;;;;;;;17.70;99.90;;;;;;5053375;28;19909;-81
2022/09/10 06:32:06;;;;;;;;;;;17.60;99.90;;;;;;5053438;28;19996;-80
2022/09/10 06:34:32;;;;;;;;;;;17.60;99.90;;;;;;5051923;28;19932;-81
2022/09/10 06:36:57;;;;;;;;;;;17.60;99.90;;;;;;5051537;28;19921;-80
2022/09/10 06:39:23;;;;;;;;;;;17.60;99.90;;;;;;5053061;28;19909;-79
2022/09/10 06:41:49;;;;;;;;;;;17.60;99.90;;;;;;5052995;28;20366;-80
2022/09/10 06:44:15;;;;;;;;;;;17.50;99.90;;;;;;5052545;28;19909;-79
2022/09/10 06:46:41;;;;;;;;;;;17.50;99.90;;;;;;5050863;28;20398;-80
2022/09/10 06:49:09;;;;;;;;;;;17.50;99.90;;;;;;5052359;28;19913;-79
2022/09/10 06:51:34;;;;;;;;;;;17.50;99.90;;;;;;5051936;28;19982;-80
2022/09/10 06:54:01;;;;;;;;;;;17.50;99.90;;;;;;5053406;28;19944;-80
2022/09/10 06:56:27;;;;;;;;;;;17.60;99.90;;;;;;5052135;28;19980;-80
2022/09/10 06:58:53;;;;;;;;;;;17.60;99.90;;;;;;5052455;28;19913;-80
2022/09/10 07:01:20;;;;;;;;;;;17.60;99.90;;;;;;5051251;28;20438;-79
2022/09/10 07:03:45;;;;;;;;;;;17.70;99.90;;;;;;5051274;28;20287;-79
2022/09/10 07:06:12;;;;;;;;;;;17.80;99.90;;;;;;5050478;28;19999;-80
2022/09/10 07:08:38;;;;;;;;;;;17.80;99.90;;;;;;5052422;28;19936;-80
2022/09/10 07:11:05;;;;;;;;;;;17.80;99.90;;;;;;5050770;28;19913;-80
2022/09/10 07:13:30;;;;;;;;;;;17.80;99.90;;;;;;5052114;28;19936;-80
2022/09/10 07:15:56;;;;;;;;;;;17.80;99.90;;;;;;5054739;28;19952;-80
2022/09/10 07:18:22;;;;;;;;;;;17.80;99.90;;;;;;5055897;28;19909;-80
2022/09/10 07:20:48;;;;;;;;;;;17.70;99.90;;;;;;5055722;28;19912;-80
2022/09/10 07:23:15;;;;;;;;;;;17.70;99.90;;;;;;5055575;28;19909;-84
2022/09/10 07:25:41;;;;;;;;;;;17.60;99.90;;;;;;5072258;28;19935;-82
2022/09/10 07:28:12;;;;;;;;;;;17.70;99.90;;;;;;5086942;28;20348;-85
2022/09/10 07:30:38;;;;;;;;;;;17.60;99.90;;;;;;5071218;28;19978;-83
2022/09/10 07:33:04;;;;;;;;;;;17.60;99.90;;;;;;5061949;28;19909;-83
2022/09/10 07:35:29;;;;;;;;;;;17.60;99.90;;;;;;5056565;28;19986;-83
2022/09/10 07:37:55;;;;;;;;;;;17.60;99.90;;;;;;5065412;28;19912;-84
2022/09/10 07:40:22;;;;;;;;;;;17.50;99.90;;;;;;5071973;28;20372;-82
2022/09/10 07:42:47;;;;;;;;;;;17.50;99.90;;;;;;5077510;28;19951;-83
2022/09/10 07:45:14;;;;;;;;;;;17.60;99.90;;;;;;5077264;28;20319;-81
2022/09/10 07:47:41;;;;;;;;;;;17.60;99.90;;;;;;5078909;28;19937;-81
2022/09/10 07:50:07;;;;;;;;;;;17.50;99.90;;;;;;5082584;28;20061;-83
2022/09/10 07:52:32;;;;;;;;;;;17.60;99.90;;;;;;5080910;28;19974;-81
2022/09/10 07:54:58;;;;;;;;;;;17.60;99.90;;;;;;5076027;28;19913;-83
2022/09/10 07:57:23;;;;;;;;;;;17.70;99.90;;;;;;5076478;28;19922;-82
2022/09/10 07:59:49;;;;;;;;;;;17.70;99.90;;;;;;5073019;28;19913;-82
2022/09/10 08:02:14;;;;;;;;;;;17.70;99.90;;;;;;5057629;28;19931;-82
2022/09/10 08:04:40;;;;;;;;;;;17.90;99.90;;;;;;5058085;28;19923;-83
2022/09/10 08:07:05;;;;;;;;;;;18.00;99.90;;;;;;5062056;28;19917;-82
2022/09/10 08:09:31;;;;;;;;;;;18.10;99.90;;;;;;5065022;28;19916;-82
2022/09/10 08:11:56;;;;;;;;;;;18.10;99.90;;;;;;5078752;28;19920;-83
2022/09/10 08:14:22;;;;;;;;;;;18.20;99.90;;;;;;5079719;28;19915;-83
2022/09/10 08:16:47;;;;;;;;;;;18.30;99.90;;;;;;5075454;28;19943;-81
2022/09/10 08:19:14;;;;;;;;;;;18.50;99.90;;;;;;5087669;22;20019;-82
2022/09/10 08:21:40;;;;;;;;;;;18.60;99.90;;;;;;5072553;28;19955;-82
2022/09/10 08:24:07;;;;;;;;;;;18.60;99.90;;;;;;5073866;28;20363;-84
2022/09/10 08:26:33;;;;;;;;;;;18.60;99.90;;;;;;5074486;28;20379;-84
2022/09/10 08:28:58;;;;;;;;;;;18.60;99.90;;;;;;5077919;28;19915;-83
2022/09/10 08:31:25;;;;;;;;;;;18.50;99.90;;;;;;5078555;28;19978;-83
2022/09/10 08:33:51;;;;;;;;;;;18.40;99.90;;;;;;5078727;28;19947;-83
2022/09/10 08:36:17;;;;;;;;;;;18.40;99.90;;;;;;5074888;28;20287;-84
2022/09/10 08:38:43;;;;;;;;;;;18.40;99.90;;;;;;5076053;28;19912;-82
2022/09/10 08:41:13;;;;;;;;;;;18.40;99.90;;;;;;5076580;28;20440;-83
2022/09/10 08:43:50;;;;;;;;;;;18.50;99.90;;;;;;5073988;28;20287;-82
2022/09/10 08:46:24;;;;;;;;;;;18.60;99.90;;;;;;5071605;28;19913;-82
2022/09/10 08:48:55;;;;;;;;;;;18.60;99.90;;;;;;5072403;28;19934;-82
2022/09/10 08:51:26;;;;;;;;;;;18.70;99.90;;;;;;5072558;28;19913;-82
2022/09/10 08:53:58;;;;;;;;;;;18.80;99.90;;;;;;5072421;28;20310;-82
2022/09/10 08:56:24;;;;;;;;;;;18.90;99.90;;;;;;5072889;28;20582;-83
2022/09/10 08:58:55;;;;;;;;;;;18.90;99.90;;;;;;5073178;28;19909;-86
2022/09/10 09:01:26;;;;;;;;;;;18.90;99.90;;;;;;5072612;28;19908;-83
2022/09/10 09:03:54;;;;;;;;;;;18.90;99.90;;;;;;5070489;28;19908;-84
2022/09/10 09:06:23;;;;;;;;;;;18.90;99.90;;;;;;5069005;28;19915;-85
2022/09/10 09:08:49;;;;;;;;;;;18.90;99.90;;;;;;5065287;28;19944;-84
2022/09/10 09:11:30;;;;;;;;;;;18.90;99.90;;;;;;5069229;28;19960;-84
2022/09/10 09:14:14;;;;;;;;;;;18.80;99.90;;;;;;5073331;28;19909;-85
2022/09/10 09:17:09;;;;;;;;;;;18.60;99.90;;;;;;5071432;28;20287;-82
2022/09/10 09:19:50;;;;;;;;;;;18.50;99.90;;;;;;5063539;28;19916;-84
2022/09/10 09:22:20;;;;;;;;;;;18.60;99.90;;;;;;5073889;28;19916;-84
2022/09/10 09:24:59;;;;;;;;;;;18.50;99.90;;;;;;5076311;28;19908;-84
2022/09/10 09:27:32;;;;;;;;;;;18.40;99.90;;;;;;5073691;28;20003;-85
2022/09/10 09:30:00;;;;;;;;;;;18.40;99.90;;;;;;5073920;28;19958;-85
2022/09/10 09:32:27;;;;;;;;;;;18.40;99.90;;;;;;5073415;28;19909;-84
2022/09/10 09:34:55;;;;;;;;;;;18.40;99.90;;;;;;5074789;28;19908;-85
2022/09/10 09:37:24;;;;;;;;;;;18.20;99.90;;;;;;5074882;28;19915;-83
2022/09/10 09:40:11;;;;;;;;;;;18.10;99.90;;;;;;5076250;28;19948;-84
2022/09/10 09:42:42;;;;;;;;;;;18.00;99.90;;;;;;5075124;28;20050;-84
2022/09/10 09:45:27;;;;;;;;;;;17.80;99.90;;;;;;5069108;28;20376;-82
2022/09/10 09:47:53;;;;;;;;;;;17.70;99.90;;;;;;5052605;28;19916;-82
2022/09/10 09:50:19;;;;;;;;;;;17.70;99.90;;;;;;5068883;28;19958;-82
2022/09/10 09:52:45;;;;;;;;;;;17.60;99.90;;;;;;5052878;28;19912;-82
2022/09/10 09:55:26;;;;;;;;;;;17.70;99.90;;;;;;5068338;28;19908;-82
2022/09/10 09:58:11;;;;;;;;;;;17.70;99.90;;;;;;5067962;28;19909;-81
2022/09/10 10:00:36;;;;;;;;;;;17.80;99.90;;;;;;5068240;28;19934;-82
2022/09/10 10:03:13;;;;;;;;;;;17.90;99.90;;;;;;5068385;28;20328;-82
2022/09/10 10:05:38;;;;;;;;;;;18.10;99.90;;;;;;5067727;28;19913;-82
2022/09/10 10:08:04;;;;;;;;;;;18.10;99.90;;;;;;5068234;28;19978;-83
2022/09/10 10:10:30;;;;;;;;;;;18.20;99.90;;;;;;5068383;28;19913;-82
2022/09/10 10:12:55;;;;;;;;;;;18.20;99.90;;;;;;5068274;28;19995;-82
2022/09/10 10:15:41;;;;;;;;;;;18.20;99.90;;;;;;5068472;28;19915;-82
2022/09/10 10:18:23;;;;;;;;;;;18.10;99.90;;;;;;5068371;28;19994;-83
2022/09/10 10:21:02;;;;;;;;;;;18.00;99.90;;;;;;5068325;28;19908;-82
2022/09/10 10:23:32;;;;;;;;;;;17.90;99.90;;;;;;5068296;28;19968;-82
2022/09/10 10:26:05;;;;;;;;;;;17.90;99.90;;;;;;5052031;28;19916;-83
2022/09/10 10:28:30;;;;;;;;;;;18.00;99.90;;;;;;5052588;28;19909;-83
2022/09/10 10:30:59;;;;;;;;;;;18.10;99.90;;;;;;5068460;28;19913;-82
2022/09/10 10:33:27;;;;;;;;;;;18.30;99.90;;;;;;5052729;28;19913;-82
2022/09/10 10:35:56;;;;;;;;;;;18.30;99.90;;;;;;5067670;28;19908;-82
2022/09/10 10:38:36;;;;;;;;;;;18.50;99.90;;;;;;5067958;28;19959;-81
2022/09/10 10:41:20;;;;;;;;;;;18.50;99.90;;;;;;5068307;28;19909;-82
2022/09/10 10:43:49;;;;;;;;;;;18.70;99.90;;;;;;5068346;28;19909;-82
2022/09/10 10:46:26;;;;;;;;;;;18.70;99.90;;;;;;5067493;28;20039;-81
2022/09/10 10:49:10;;;;;;;;;;;18.80;99.90;;;;;;5052711;28;19916;-82
2022/09/10 10:51:55;;;;;;;;;;;18.70;99.90;;;;;;5056514;28;20330;-82
2022/09/10 10:54:39;;;;;;;;;;;18.60;99.90;;;;;;5071964;28;19909;-82
2022/09/10 10:57:19;;;;;;;;;;;18.60;99.90;;;;;;5071207;28;20284;-82
2022/09/10 11:00:06;;;;;;;;;;;18.50;99.90;;;;;;5071886;28;19913;-82
2022/09/10 11:02:32;;;;;;;;;;;18.50;99.90;;;;;;5071768;28;19959;-82
2022/09/10 11:05:00;;;;;;;;;;;18.50;99.90;;;;;;5056265;28;20275;-82
2022/09/10 11:07:32;;;;;;;;;;;18.50;99.90;;;;;;5071066;28;19908;-82
2022/09/10 11:10:10;;;;;;;;;;;18.40;99.90;;;;;;5056014;28;19916;-82
2022/09/10 11:12:42;;;;;;;;;;;18.20;99.90;;;;;;5071633;28;19909;-82
2022/09/10 11:15:18;;;;;;;;;;;18.00;99.90;;;;;;5072043;28;19908;-82
2022/09/10 11:17:47;;;;;;;;;;;17.70;99.90;;;;;;5071398;28;19909;-82
2022/09/10 11:20:17;;;;;;;;;;;17.60;99.90;;;;;;5071937;28;19908;-81
2022/09/10 11:22:50;;;;;;;;;;;17.50;99.90;;;;;;5072157;28;19916;-82
2022/09/10 11:25:15;;;;;;;;;;;17.50;99.90;;;;;;5056271;28;20264;-82
2022/09/10 11:27:45;;;;;;;;;;;17.50;99.90;;;;;;5070808;28;19916;-82
2022/09/10 11:30:11;;;;;;;;;;;17.60;99.90;;;;;;5071347;28;19962;-82
2022/09/10 11:32:46;;;;;;;;;;;17.80;99.90;;;;;;5056217;28;19909;-82
2022/09/10 11:35:11;;;;;;;;;;;17.90;99.90;;;;;;5071506;28;19909;-82
2022/09/10 11:37:53;;;;;;;;;;;17.90;99.90;;;;;;5070670;28;19966;-82
2022/09/10 11:40:26;;;;;;;;;;;17.90;99.90;;;;;;5071541;28;19962;-82
2022/09/10 11:42:57;;;;;;;;;;;18.00;99.90;;;;;;5071297;28;19944;-82
2022/09/10 11:45:36;;;;;;;;;;;18.00;99.90;;;;;;5055694;28;20253;-82
2022/09/10 11:48:16;;;;;;;;;;;18.10;99.90;;;;;;5055351;28;19909;-81
2022/09/10 11:50:47;;;;;;;;;;;18.10;99.90;;;;;;5070724;28;20386;-81
2022/09/10 11:53:14;;;;;;;;;;;18.20;99.90;;;;;;5055321;28;19909;-81
2022/09/10 11:55:58;;;;;;;;;;;18.30;99.90;;;;;;5054747;28;20257;-81
2022/09/10 11:58:42;;;;;;;;;;;18.20;99.90;;;;;;5055181;28;19970;-82
2022/09/10 12:01:08;;;;;;;;;;;17.90;99.90;;;;;;5070464;28;19912;-81
2022/09/10 12:03:33;;;;;;;;;;;17.80;99.90;;;;;;5070612;28;19935;-82
2022/09/10 12:05:59;;;;;;;;;;;17.80;99.90;;;;;;5069714;28;19931;-81
2022/09/10 12:08:54;;;;;;;;;;;17.80;99.90;;;;;;5054944;28;19930;-81
2022/09/10 12:11:26;;;;;;;;;;;17.80;99.90;;;;;;5044728;28;20300;-82
2022/09/10 12:13:51;;;;;;;;;;;17.80;99.90;;;;;;5070344;28;20388;-81
2022/09/10 12:16:20;;;;;;;;;;;17.80;99.90;;;;;;5069543;28;19909;-81
2022/09/10 12:18:47;;;;;;;;;;;17.70;99.90;;;;;;5069831;28;19970;-81
2022/09/10 12:21:28;;;;;;;;;;;17.70;99.90;;;;;;5070096;28;19909;-82
2022/09/10 12:23:54;;;;;;;;;;;17.70;99.90;;;;;;5070123;28;19913;-83
2022/09/10 12:26:21;;;;;;;;;;;17.80;99.90;;;;;;5053782;28;19978;-82
2022/09/10 12:28:52;;;;;;;;;;;17.80;99.90;;;;;;5069871;28;20307;-82
2022/09/10 12:31:21;;;;;;;;;;;17.80;99.90;;;;;;5069978;28;19919;-82
2022/09/10 12:33:46;;;;;;;;;;;17.80;99.90;;;;;;5070035;28;19909;-83
2022/09/10 12:36:32;;;;;;;;;;;17.80;99.90;;;;;;5069336;28;19916;-83
2022/09/10 12:39:18;;;;;;;;;;;17.80;99.90;;;;;;5068424;28;20322;-83
2022/09/10 12:41:44;;;;;;;;;;;17.70;99.90;;;;;;5053104;28;19917;-83
2022/09/10 12:44:27;;;;;;;;;;;17.80;99.90;;;;;;5069962;28;20614;-83
2022/09/10 12:47:11;;;;;;;;;;;17.80;99.90;;;;;;5069162;28;20387;-84
2022/09/10 12:49:48;;;;;;;;;;;17.80;99.90;;;;;;5070014;28;20331;-82
2022/09/10 12:52:33;;;;;;;;;;;17.80;99.90;;;;;;5069794;28;19912;-82
2022/09/10 12:55:17;;;;;;;;;;;17.90;99.90;;;;;;5070053;28;19916;-83
2022/09/10 12:57:46;;;;;;;;;;;18.00;99.90;;;;;;5069374;28;19956;-83
2022/09/10 13:00:36;;;;;;;;;;;17.90;99.90;;;;;;5069857;28;19948;-86
2022/09/10 13:03:05;;;;;;;;;;;17.70;99.90;;;;;;5054178;28;19909;-85
2022/09/10 13:05:53;;;;;;;;;;;17.40;99.90;;;;;;5069497;28;20007;-84
2022/09/10 13:08:47;;;;;;;;;;;17.30;99.90;;;;;;5054204;28;19955;-85
2022/09/10 13:11:20;;;;;;;;;;;17.40;99.90;;;;;;5045244;28;19944;-84
2022/09/10 13:13:58;;;;;;;;;;;17.50;99.90;;;;;;5053873;28;19909;-84
2022/09/10 13:16:26;;;;;;;;;;;17.70;99.90;;;;;;5069043;28;20357;-84
2022/09/10 13:18:53;;;;;;;;;;;17.90;99.90;;;;;;5069031;28;19956;-84
2022/09/10 13:21:21;;;;;;;;;;;18.00;99.90;;;;;;5054132;28;19909;-84
2022/09/10 13:23:47;;;;;;;;;;;18.20;99.90;;;;;;5054148;28;20298;-84
2022/09/10 13:26:32;;;;;;;;;;;18.30;99.90;;;;;;5068876;28;19956;-83
2022/09/10 13:29:02;;;;;;;;;;;18.60;99.90;;;;;;5069382;28;19915;-84
2022/09/10 13:31:32;;;;;;;;;;;18.80;99.90;;;;;;5069217;28;19917;-84
2022/09/10 13:34:19;;;;;;;;;;;18.90;99.90;;;;;;5069175;28;19908;-84
2022/09/10 13:37:06;;;;;;;;;;;18.90;99.90;;;;;;5068645;28;19920;-84
2022/09/10 13:39:35;;;;;;;;;;;18.90;99.90;;;;;;5069132;28;19909;-84
2022/09/10 13:42:19;;;;;;;;;;;18.50;99.90;;;;;;5053795;28;20280;-84
2022/09/10 13:45:03;;;;;;;;;;;18.30;99.90;;;;;;5068995;28;19974;-84
2022/09/10 13:47:47;;;;;;;;;;;18.10;99.90;;;;;;5068577;28;19908;-84
2022/09/10 13:50:16;;;;;;;;;;;18.10;99.90;;;;;;5068445;28;19962;-85
2022/09/10 13:52:44;;;;;;;;;;;18.00;99.90;;;;;;5068308;28;20296;-85
2022/09/10 13:55:20;;;;;;;;;;;18.00;99.90;;;;;;5068274;28;19956;-84
2022/09/10 13:57:47;;;;;;;;;;;18.00;99.90;;;;;;5067625;28;20391;-85
2022/09/10 14:00:16;;;;;;;;;;;18.00;99.90;;;;;;5068236;28;19953;-84
2022/09/10 14:02:58;;;;;;;;;;;18.00;99.90;;;;;;5068309;28;19948;-85
2022/09/10 14:05:42;;;;;;;;;;;18.10;99.90;;;;;;5068010;28;19915;-85
2022/09/10 14:08:13;;;;;;;;;;;18.20;99.90;;;;;;5052581;28;19909;-84
2022/09/10 14:10:58;;;;;;;;;;;18.40;99.90;;;;;;5052478;28;19912;-85
2022/09/10 14:13:30;;;;;;;;;;;18.60;99.90;;;;;;5068092;28;19913;-84
2022/09/10 14:15:57;;;;;;;;;;;18.80;99.90;;;;;;5067306;28;19919;-85
2022/09/10 14:18:25;;;;;;;;;;;18.80;99.90;;;;;;5098333;22;19966;-82
2022/09/10 14:20:52;;;;;;;;;;;18.80;99.90;;;;;;5091344;28;19915;-82
2022/09/10 14:23:17;;;;;;;;;;;18.90;99.90;;;;;;5091191;28;19915;-82
2022/09/10 14:25:43;;;;;;;;;;;19.10;99.90;;;;;;5094863;28;19908;-82
2022/09/10 14:28:15;;;;;;;;;;;19.10;99.90;;;;;;5095204;28;19919;-82
2022/09/10 14:30:41;;;;;;;;;;;19.10;99.90;;;;;;5096664;28;20401;-82